Time;durP1;ratioP1;P1;durP2;ratioP2;P2;SDS_P1;SDS_P2;PMS_P1;PMS_P2;Temp;Humidity;BMP_temperature;BMP_pressure;BME280_temperature;BME280_humidity;BME280_pressure;Samples;Min_cycle;Max_cycle;Signal;HPM_P1;HPM_P2
2023/04/21 00:01:17;;;;;;;10.65;5.82;;;9.10;99.90;;;;;;5003545;28;20618;-73
2023/04/21 00:03:42;;;;;;;11.82;7.65;;;9.00;99.90;;;;;;5003424;28;20054;-74
2023/04/21 00:06:08;;;;;;;10.27;7.15;;;9.00;99.90;;;;;;5003835;28;20084;-74
2023/04/21 00:08:39;;;;;;;10.63;7.55;;;9.00;99.90;;;;;;5004203;28;20096;-73
2023/04/21 00:11:08;;;;;;;9.85;6.70;;;9.00;99.90;;;;;;5004073;28;20125;-74
2023/04/21 00:13:35;;;;;;;13.50;7.50;;;9.00;99.90;;;;;;5003021;28;20481;-73
2023/04/21 00:16:01;;;;;;;13.20;6.90;;;9.00;99.90;;;;;;5003354;28;20397;-71
2023/04/21 00:18:27;;;;;;;11.63;6.72;;;8.90;99.90;;;;;;5003441;28;20041;-73
2023/04/21 00:20:53;;;;;;;11.20;6.75;;;9.00;99.90;;;;;;5003985;28;20065;-72
2023/04/21 00:23:18;;;;;;;10.80;6.65;;;8.90;99.90;;;;;;5004257;28;20649;-73
2023/04/21 00:25:44;;;;;;;10.40;6.22;;;8.90;99.90;;;;;;5002813;28;20466;-73
2023/04/21 00:28:10;;;;;;;12.18;7.47;;;8.90;99.90;;;;;;5002717;28;20080;-73
2023/04/21 00:30:35;;;;;;;10.20;6.07;;;8.90;99.90;;;;;;5003713;28;20133;-73
2023/04/21 00:33:01;;;;;;;19.60;9.38;;;8.90;99.90;;;;;;5002858;28;20133;-73
2023/04/21 00:35:26;;;;;;;14.05;6.72;;;8.80;99.90;;;;;;5002743;28;20049;-74
2023/04/21 00:37:52;;;;;;;13.35;5.63;;;8.80;99.90;;;;;;5003294;28;20676;-74
2023/04/21 00:40:18;;;;;;;8.05;5.38;;;8.90;99.90;;;;;;4986499;28;20124;-74
2023/04/21 00:42:44;;;;;;;9.43;5.05;;;8.80;99.90;;;;;;5003440;28;20108;-72
2023/04/21 00:45:10;;;;;;;12.05;6.53;;;8.80;99.90;;;;;;5004083;28;20658;-74
2023/04/21 00:47:35;;;;;;;12.75;7.78;;;8.80;99.90;;;;;;5003843;28;20073;-75
2023/04/21 00:50:02;;;;;;;11.93;6.00;;;8.80;99.90;;;;;;5002277;28;20551;-75
2023/04/21 00:52:29;;;;;;;9.57;6.07;;;8.80;99.90;;;;;;5002802;28;20085;-74
2023/04/21 00:54:55;;;;;;;9.07;5.55;;;8.80;99.90;;;;;;5003979;28;20037;-74
2023/04/21 00:57:22;;;;;;;8.45;6.45;;;8.80;99.90;;;;;;5002426;28;20046;-75
2023/04/21 00:59:48;;;;;;;8.43;4.82;;;8.70;99.90;;;;;;4983925;28;20038;-75
2023/04/21 01:02:18;;;;;;;10.07;6.32;;;8.70;99.90;;;;;;4984014;28;20094;-73
2023/04/21 01:04:44;;;;;;;7.43;6.45;;;8.70;99.90;;;;;;4982474;28;20061;-72
2023/04/21 01:09:48;;;;;;;7.95;4.63;;;8.70;99.90;;;;;;4931548;26;20050;-73
2023/04/21 01:12:14;;;;;;;7.78;5.95;;;8.60;99.90;;;;;;4983644;28;20077;-72
2023/04/21 01:14:40;;;;;;;7.05;4.32;;;8.60;99.90;;;;;;4983724;28;20070;-72
2023/04/21 01:17:06;;;;;;;9.85;5.53;;;8.60;99.90;;;;;;4985688;28;20144;-72
2023/04/21 01:19:39;;;;;;;12.88;6.40;;;8.60;99.90;;;;;;4987821;28;20046;-73
2023/04/21 01:22:06;;;;;;;;;;;8.60;99.90;;;;;;4972095;28;20132;-75
2023/04/21 01:24:50;;;;;;;7.75;5.78;;;8.60;99.90;;;;;;4969656;28;19929;-75
2023/04/21 01:27:17;;;;;;;9.88;7.88;;;8.60;99.90;;;;;;4987862;28;20046;-74
2023/04/21 01:29:48;;;;;;;7.35;5.70;;;8.60;99.90;;;;;;4987142;28;20052;-73
2023/04/21 01:32:16;;;;;;;11.75;6.28;;;8.50;99.90;;;;;;4987641;28;20042;-75
2023/04/21 01:34:42;;;;;;;9.52;5.50;;;8.50;99.90;;;;;;4988024;28;20117;-73
2023/04/21 01:37:13;;;;;;;8.88;4.70;;;8.50;99.90;;;;;;4986968;28;20130;-74
2023/04/21 01:39:40;;;;;;;10.57;5.78;;;8.50;99.90;;;;;;4987326;28;20050;-72
2023/04/21 01:42:06;;;;;;;9.55;6.22;;;8.50;99.90;;;;;;4986317;28;20046;-73
2023/04/21 01:44:32;;;;;;;9.10;4.93;;;8.50;99.90;;;;;;4985823;28;20092;-72
2023/04/21 01:46:58;;;;;;;8.63;5.22;;;8.50;99.90;;;;;;4986043;28;20503;-73
2023/04/21 01:49:23;;;;;;;9.13;5.75;;;8.50;99.90;;;;;;4988159;28;20070;-74
2023/04/21 01:51:49;;;;;;;8.90;5.63;;;8.50;99.90;;;;;;4986428;28;20046;-74
2023/04/21 01:54:14;;;;;;;6.97;5.30;;;8.40;99.90;;;;;;4987589;28;20046;-74
2023/04/21 01:56:40;;;;;;;9.38;5.00;;;8.40;99.90;;;;;;4985855;28;20070;-74
2023/04/21 01:59:06;;;;;;;7.00;4.90;;;8.40;99.90;;;;;;4985888;28;20046;-72
2023/04/21 02:01:31;;;;;;;6.85;4.70;;;8.40;99.90;;;;;;4987210;28;20488;-74
2023/04/21 02:03:57;;;;;;;11.18;6.05;;;8.30;99.90;;;;;;4987162;28;20146;-75
2023/04/21 02:06:22;;;;;;;8.32;5.63;;;8.40;99.90;;;;;;4987081;28;20058;-75
2023/04/21 02:08:48;;;;;;;7.10;6.00;;;8.40;99.90;;;;;;4987018;28;20054;-75
2023/04/21 02:11:13;;;;;;;11.25;6.28;;;8.30;99.90;;;;;;4969412;28;20054;-75
2023/04/21 02:13:39;;;;;;;7.22;5.53;;;8.30;99.90;;;;;;4986718;28;20078;-75
2023/04/21 02:16:05;;;;;;;9.13;5.97;;;8.30;99.90;;;;;;4987444;28;20085;-75
2023/04/21 02:18:31;;;;;;;11.65;5.28;;;8.30;99.90;;;;;;4986602;28;20038;-75
2023/04/21 02:20:56;;;;;;;9.52;5.15;;;8.30;99.90;;;;;;4986200;28;20128;-75
2023/04/21 02:23:22;;;;;;;7.20;5.57;;;8.30;99.90;;;;;;4987891;28;20460;-74
2023/04/21 02:25:47;;;;;;;10.63;6.47;;;8.30;99.90;;;;;;4985372;28;20484;-74
2023/04/21 02:28:13;;;;;;;8.18;5.45;;;8.30;99.90;;;;;;4986102;28;20507;-75
2023/04/21 02:30:39;;;;;;;7.95;6.03;;;8.30;99.90;;;;;;4986595;28;20039;-74
2023/04/21 02:33:04;;;;;;;8.70;6.32;;;8.30;99.90;;;;;;4985702;28;20100;-75
2023/04/21 02:35:32;;;;;;;12.07;5.88;;;8.30;99.90;;;;;;4984673;28;20396;-75
2023/04/21 02:37:58;;;;;;;8.55;6.00;;;8.30;99.90;;;;;;4985387;28;20200;-75
2023/04/21 02:40:23;;;;;;;10.88;6.38;;;8.20;99.90;;;;;;4985860;28;20096;-74
2023/04/21 02:42:49;;;;;;;10.57;7.55;;;8.20;99.90;;;;;;4985841;28;20042;-73
2023/04/21 02:45:15;;;;;;;6.78;5.68;;;8.20;99.90;;;;;;4986777;28;20088;-74
2023/04/21 02:47:40;;;;;;;6.93;4.60;;;8.20;99.90;;;;;;4985131;28;20459;-75
2023/04/21 02:50:06;;;;;;;7.50;5.85;;;8.20;99.90;;;;;;4985740;28;20532;-73
2023/04/21 02:52:36;;;;;;;8.63;5.93;;;8.20;99.90;;;;;;4986040;28;20046;-72
2023/04/21 02:55:02;;;;;;;10.77;5.85;;;8.20;99.90;;;;;;4986511;28;20117;-74
2023/04/21 02:57:28;;;;;;;8.57;6.45;;;8.10;99.90;;;;;;4986104;28;20130;-75
2023/04/21 02:59:54;;;;;;;8.82;4.95;;;8.10;99.90;;;;;;4986645;28;20078;-75
2023/04/21 03:02:20;;;;;;;7.80;6.97;;;8.10;99.90;;;;;;4986416;28;20057;-72
2023/04/21 03:04:45;;;;;;;9.38;6.43;;;8.10;99.90;;;;;;4986248;28;20049;-75
2023/04/21 03:07:12;;;;;;;8.95;6.18;;;8.00;99.90;;;;;;4984910;28;20520;-75
2023/04/21 03:09:38;;;;;;;10.88;5.95;;;8.00;99.90;;;;;;4985909;28;20065;-74
2023/04/21 03:12:04;;;;;;;6.93;5.70;;;8.00;99.90;;;;;;4985853;28;20480;-73
2023/04/21 03:14:29;;;;;;;7.03;5.47;;;8.00;99.90;;;;;;4985477;28;20045;-75
2023/04/21 03:16:55;;;;;;;10.05;6.60;;;8.00;99.90;;;;;;4986035;28;20104;-75
2023/04/21 03:19:21;;;;;;;8.25;5.53;;;8.00;99.90;;;;;;4986311;28;20073;-71
2023/04/21 03:21:46;;;;;;;10.07;7.72;;;8.00;99.90;;;;;;4984519;28;20481;-73
2023/04/21 03:24:12;;;;;;;11.68;6.82;;;8.00;99.90;;;;;;4986140;28;20094;-75
2023/04/21 03:26:39;;;;;;;7.63;6.35;;;8.00;99.90;;;;;;4985404;28;20057;-74
2023/04/21 03:29:05;;;;;;;6.35;5.75;;;7.90;99.90;;;;;;4984630;28;20121;-75
2023/04/21 03:31:30;;;;;;;7.90;5.57;;;7.90;99.90;;;;;;4983955;28;20145;-74
2023/04/21 03:33:56;;;;;;;9.15;6.80;;;7.90;99.90;;;;;;4985829;28;20035;-74
2023/04/21 03:36:22;;;;;;;9.43;6.43;;;7.90;99.90;;;;;;4983633;28;20050;-71
2023/04/21 03:38:47;;;;;;;9.85;6.45;;;7.90;99.90;;;;;;4982797;28;20512;-72
2023/04/21 03:41:13;;;;;;;13.10;6.65;;;7.90;99.90;;;;;;4985335;28;20038;-73
2023/04/21 03:43:38;;;;;;;10.98;6.57;;;7.90;99.90;;;;;;4985185;28;20146;-72
2023/04/21 03:46:04;;;;;;;10.00;7.22;;;7.90;99.90;;;;;;4983926;28;20038;-74
2023/04/21 03:48:30;;;;;;;10.80;6.38;;;7.80;99.90;;;;;;4985047;28;20515;-73
2023/04/21 03:50:56;;;;;;;8.68;5.78;;;7.80;99.90;;;;;;4982970;28;20046;-73
2023/04/21 03:53:22;;;;;;;10.00;6.80;;;7.80;99.90;;;;;;4984324;28;20069;-72
2023/04/21 03:55:49;;;;;;;12.80;6.30;;;7.80;99.90;;;;;;4984883;28;20030;-73
2023/04/21 03:58:15;;;;;;;11.68;7.53;;;7.80;99.90;;;;;;4985111;28;20060;-75
2023/04/21 04:00:41;;;;;;;10.57;6.55;;;7.80;99.90;;;;;;4984813;28;20065;-74
2023/04/21 04:03:07;;;;;;;9.57;7.20;;;7.80;99.90;;;;;;4984593;28;20053;-75
2023/04/21 04:05:34;;;;;;;9.30;5.72;;;7.80;99.90;;;;;;4982834;28;20042;-75
2023/04/21 04:07:59;;;;;;;7.78;5.60;;;7.80;99.90;;;;;;4984436;28;20061;-74
2023/04/21 04:10:25;;;;;;;10.07;7.20;;;7.80;99.90;;;;;;4984118;28;20481;-75
2023/04/21 04:12:50;;;;;;;10.35;6.15;;;7.80;99.90;;;;;;4985166;28;20049;-74
2023/04/21 04:15:16;;;;;;;7.90;6.47;;;7.70;99.90;;;;;;4984927;28;20129;-75
2023/04/21 04:17:41;;;;;;;9.10;5.68;;;7.70;99.90;;;;;;4984482;28;20088;-74
2023/04/21 04:20:07;;;;;;;7.10;6.38;;;7.70;99.90;;;;;;4982503;28;20050;-72
2023/04/21 04:22:33;;;;;;;10.93;6.85;;;7.70;99.90;;;;;;4984539;28;20465;-75
2023/04/21 04:25:00;;;;;;;14.85;7.57;;;7.70;99.90;;;;;;4983344;28;20390;-75
2023/04/21 04:27:26;;;;;;;7.22;5.45;;;7.70;99.90;;;;;;4984165;28;20117;-72
2023/04/21 04:29:52;;;;;;;8.45;6.40;;;7.60;99.90;;;;;;4983868;28;20086;-74
2023/04/21 04:32:17;;;;;;;10.93;6.05;;;7.70;99.90;;;;;;4983209;28;20074;-72
2023/04/21 04:34:44;;;;;;;6.72;5.68;;;7.70;99.90;;;;;;4982905;28;20058;-75
2023/04/21 04:37:10;;;;;;;11.15;5.75;;;7.70;99.90;;;;;;4983104;28;20121;-75
2023/04/21 04:39:36;;;;;;;11.07;5.68;;;7.70;99.90;;;;;;4983689;28;20145;-75
2023/04/21 04:42:02;;;;;;;8.27;6.70;;;7.70;99.90;;;;;;4982765;28;20109;-74
2023/04/21 04:44:28;;;;;;;6.68;5.65;;;7.70;99.90;;;;;;4982155;28;20096;-72
2023/04/21 04:46:55;;;;;;;10.45;6.32;;;7.70;99.90;;;;;;4982622;28;20133;-73
2023/04/21 04:49:21;;;;;;;6.82;6.22;;;7.70;99.90;;;;;;4982844;28;20042;-72
2023/04/21 04:51:46;;;;;;;6.97;5.70;;;7.80;99.90;;;;;;4981508;28;20043;-74
2023/04/21 04:54:12;;;;;;;8.82;7.00;;;7.80;99.90;;;;;;4978618;28;20442;-76
2023/04/21 04:56:38;;;;;;;8.13;6.07;;;7.80;99.90;;;;;;4984211;28;20096;-74
2023/04/21 04:59:03;;;;;;;8.52;5.05;;;7.80;99.90;;;;;;4983047;28;20046;-77
2023/04/21 05:01:29;;;;;;;9.05;6.32;;;7.80;99.90;;;;;;4983481;28;20069;-76
2023/04/21 05:03:55;;;;;;;6.97;4.60;;;7.80;99.90;;;;;;4982732;28;20035;-76
2023/04/21 05:06:22;;;;;;;7.10;5.30;;;7.90;99.90;;;;;;4982936;28;20038;-75
2023/04/21 05:08:47;;;;;;;5.88;5.28;;;7.90;99.90;;;;;;4982914;28;20125;-76
2023/04/21 05:11:13;;;;;;;6.75;5.00;;;7.90;99.90;;;;;;4981968;28;20478;-76
2023/04/21 05:13:39;;;;;;;6.30;4.45;;;7.90;99.90;;;;;;4982653;28;20493;-76
2023/04/21 05:16:05;;;;;;;6.68;5.20;;;7.90;99.90;;;;;;4983938;28;20062;-77
2023/04/21 05:18:31;;;;;;;8.38;6.05;;;8.00;99.90;;;;;;4982394;28;20121;-77
2023/04/21 05:20:56;;;;;;;7.30;4.85;;;8.00;99.90;;;;;;4965163;28;20042;-77
2023/04/21 05:23:22;;;;;;;10.77;6.07;;;8.00;99.90;;;;;;4984471;28;20046;-78
2023/04/21 05:25:48;;;;;;;10.02;7.10;;;8.10;99.90;;;;;;4982803;28;20519;-77
2023/04/21 05:28:14;;;;;;;8.55;6.50;;;8.10;99.90;;;;;;4984354;28;20557;-78
2023/04/21 05:30:40;;;;;;;5.93;4.05;;;8.10;99.90;;;;;;4983936;28;20080;-74
2023/04/21 05:33:06;;;;;;;5.55;4.78;;;8.20;99.90;;;;;;4981592;28;21721;-77
2023/04/21 05:35:32;;;;;;;7.20;5.10;;;8.20;99.90;;;;;;4982547;28;20370;-76
2023/04/21 05:37:58;;;;;;;7.38;5.82;;;8.20;99.90;;;;;;4982563;28;20034;-77
2023/04/21 05:40:24;;;;;;;6.88;5.53;;;8.20;99.90;;;;;;4983798;28;20038;-76
2023/04/21 05:42:49;;;;;;;8.38;4.72;;;8.20;99.90;;;;;;4965961;28;20046;-75
2023/04/21 05:45:15;;;;;;;7.70;5.38;;;8.20;99.90;;;;;;4974029;28;20046;-77
2023/04/21 05:47:40;;;;;;;7.63;5.22;;;8.20;99.90;;;;;;4981535;28;20078;-77
2023/04/21 05:50:07;;;;;;;7.82;4.60;;;8.20;99.90;;;;;;4978872;28;20042;-75
2023/04/21 05:52:33;;;;;;;7.50;4.28;;;8.20;99.90;;;;;;4982911;28;20047;-74
2023/04/21 05:54:59;;;;;;;4.68;4.07;;;8.20;99.90;;;;;;4981870;28;20089;-76
2023/04/21 05:57:25;;;;;;;16.05;4.60;;;8.30;99.90;;;;;;4980459;28;20143;-75
2023/04/21 05:59:51;;;;;;;9.32;6.13;;;8.30;99.90;;;;;;4980692;28;20500;-79
2023/04/21 06:02:16;;;;;;;7.35;4.75;;;8.30;99.90;;;;;;4980018;28;20292;-80
2023/04/21 06:04:42;;;;;;;9.80;5.57;;;8.40;99.90;;;;;;4982596;28;20135;-76
2023/04/21 06:07:09;;;;;;;7.32;5.30;;;8.30;99.90;;;;;;4984729;28;20227;-77
2023/04/21 06:09:35;;;;;;;8.18;4.97;;;8.40;99.90;;;;;;4985435;28;20058;-78
2023/04/21 06:12:01;;;;;;;7.40;4.97;;;8.40;99.90;;;;;;4985948;28;20588;-75
2023/04/21 06:14:27;;;;;;;7.30;4.82;;;8.50;99.90;;;;;;4984838;28;20093;-79
2023/04/21 06:16:53;;;;;;;10.32;4.63;;;8.50;99.90;;;;;;4985800;28;20042;-78
2023/04/21 06:19:18;;;;;;;6.35;4.47;;;8.50;99.90;;;;;;4984193;28;20473;-75
2023/04/21 06:21:44;;;;;;;8.10;4.82;;;8.60;99.90;;;;;;4964643;28;20846;-75
2023/04/21 06:24:09;;;;;;;9.30;5.22;;;8.60;99.90;;;;;;4985064;28;20421;-76
2023/04/21 06:26:35;;;;;;;5.43;3.85;;;8.60;99.90;;;;;;4985380;28;20046;-76
2023/04/21 06:29:00;;;;;;;7.10;4.43;;;8.70;99.90;;;;;;4985480;28;20066;-76
2023/04/21 06:31:26;;;;;;;6.78;5.10;;;8.70;99.90;;;;;;4984193;28;20053;-76
2023/04/21 06:33:52;;;;;;;4.45;3.80;;;8.80;99.90;;;;;;4986195;28;20053;-75
2023/04/21 06:36:18;;;;;;;14.73;4.38;;;8.80;99.90;;;;;;4982783;28;20077;-75
2023/04/21 06:38:43;;;;;;;7.10;3.70;;;8.80;99.90;;;;;;4984481;28;20042;-76
2023/04/21 06:41:09;;;;;;;6.63;4.63;;;8.90;99.90;;;;;;4983928;28;20133;-76
2023/04/21 06:43:35;;;;;;;10.15;6.03;;;8.90;99.90;;;;;;4966775;28;20443;-76
2023/04/21 06:46:01;;;;;;;7.20;4.68;;;9.00;99.90;;;;;;4984002;28;20054;-75
2023/04/21 06:48:26;;;;;;;9.10;4.75;;;9.00;99.90;;;;;;4983945;28;20073;-76
2023/04/21 06:50:52;;;;;;;4.72;4.22;;;9.00;99.90;;;;;;4982874;28;20542;-77
2023/04/21 06:53:20;;;;;;;7.70;4.57;;;9.00;99.90;;;;;;4984214;28;20050;-77
2023/04/21 06:55:46;;;;;;;8.00;4.18;;;9.10;99.90;;;;;;4984271;28;20104;-76
2023/04/21 06:58:12;;;;;;;7.22;4.03;;;9.10;99.90;;;;;;4985598;28;20501;-76
2023/04/21 07:00:37;;;;;;;5.88;4.65;;;9.10;99.90;;;;;;4983931;28;20369;-75
2023/04/21 07:03:03;;;;;;;9.48;4.43;;;9.10;99.90;;;;;;4983786;28;20448;-74
2023/04/21 07:05:29;;;;;;;6.78;4.95;;;9.10;99.90;;;;;;4983148;28;20508;-77
2023/04/21 07:07:58;;;;;;;7.35;4.28;;;9.20;99.90;;;;;;4985274;28;20051;-76
2023/04/21 07:10:25;;;;;;;8.30;4.32;;;9.20;99.90;;;;;;4983682;28;20042;-77
2023/04/21 07:12:50;;;;;;;6.57;4.10;;;9.20;99.90;;;;;;4984194;28;20420;-75
2023/04/21 07:15:16;;;;;;;6.13;4.47;;;9.20;99.90;;;;;;4984892;28;20049;-78
2023/04/21 07:17:42;;;;;;;8.45;4.65;;;9.30;99.90;;;;;;4983205;28;20225;-77
2023/04/21 07:20:08;;;;;;;11.07;4.40;;;9.40;99.90;;;;;;4982360;28;20045;-77
2023/04/21 07:22:34;;;;;;;8.85;4.97;;;9.50;99.90;;;;;;4984145;28;20043;-77
2023/04/21 07:25:05;;;;;;;8.73;4.53;;;9.50;99.90;;;;;;4984151;28;20038;-77
2023/04/21 07:27:31;;;;;;;6.90;4.30;;;9.50;99.90;;;;;;4982537;28;20050;-76
2023/04/21 07:29:57;;;;;;;6.88;3.47;;;9.60;99.90;;;;;;4983399;28;20693;-77
2023/04/21 07:32:22;;;;;;;8.93;4.03;;;9.60;99.90;;;;;;4982978;28;20316;-76
2023/04/21 07:34:48;;;;;;;7.85;4.70;;;9.60;99.90;;;;;;4982804;28;20090;-77
2023/04/21 07:37:15;;;;;;;5.88;3.83;;;9.70;99.90;;;;;;4984614;28;20129;-77
2023/04/21 07:39:40;;;;;;;7.13;4.03;;;9.70;99.90;;;;;;4984164;28;20591;-77
2023/04/21 07:42:07;;;;;;;7.60;4.18;;;9.70;99.90;;;;;;4992918;28;20042;-78
2023/04/21 07:44:33;;;;;;;9.82;5.35;;;9.80;99.90;;;;;;4981698;28;20061;-75
2023/04/21 07:46:59;;;;;;;9.23;5.38;;;9.80;99.90;;;;;;4982589;28;20034;-76
2023/04/21 07:49:24;;;;;;;12.80;5.60;;;9.80;99.90;;;;;;4983052;28;20546;-76
2023/04/21 07:51:50;;;;;;;5.88;3.80;;;10.00;99.90;;;;;;4984322;28;20137;-80
2023/04/21 07:54:16;;;;;;;7.07;4.07;;;10.00;99.90;;;;;;4984060;28;20038;-79
2023/04/21 07:56:42;;;;;;;8.73;5.47;;;10.10;99.90;;;;;;4982261;28;20126;-78
2023/04/21 07:59:08;;;;;;;10.38;6.15;;;10.10;99.90;;;;;;4984023;28;20121;-78
2023/04/21 08:01:33;;;;;;;7.82;4.57;;;10.20;99.90;;;;;;4981815;28;20046;-77
2023/04/21 08:03:59;;;;;;;7.20;5.40;;;10.20;99.90;;;;;;4984053;28;20039;-80
2023/04/21 08:06:24;;;;;;;7.13;3.85;;;10.30;99.90;;;;;;4981429;28;20050;-78
2023/04/21 08:08:50;;;;;;;7.95;4.65;;;10.40;99.90;;;;;;4984022;28;20129;-79
2023/04/21 08:11:16;;;;;;;6.22;5.05;;;10.40;99.90;;;;;;4984221;28;20086;-79
2023/04/21 08:13:41;;;;;;;10.90;5.80;;;10.50;99.90;;;;;;4981965;28;20039;-79
2023/04/21 08:16:07;;;;;;;10.45;5.85;;;10.60;99.90;;;;;;4982815;28;20073;-79
2023/04/21 08:18:33;;;;;;;9.32;5.43;;;10.60;99.90;;;;;;4981970;28;20050;-78
2023/04/21 08:20:58;;;;;;;7.47;4.35;;;10.70;99.90;;;;;;4982718;28;20046;-80
2023/04/21 08:23:24;;;;;;;12.18;4.68;;;10.70;99.90;;;;;;4982529;28;20455;-77
2023/04/21 08:25:49;;;;;;;7.28;5.65;;;10.80;99.90;;;;;;4983303;28;20039;-79
2023/04/21 08:28:15;;;;;;;6.32;4.63;;;10.80;99.90;;;;;;4966287;28;20429;-79
2023/04/21 08:30:41;;;;;;;9.93;4.72;;;10.80;99.90;;;;;;4982229;28;20488;-79
2023/04/21 08:33:12;;;;;;;6.95;4.43;;;10.90;99.90;;;;;;4981865;28;20042;-79
2023/04/21 08:35:39;;;;;;;8.77;4.20;;;10.90;99.90;;;;;;4982621;28;20077;-78
2023/04/21 08:38:05;;;;;;;9.45;4.90;;;11.00;99.90;;;;;;4983837;28;20435;-77
2023/04/21 08:40:36;;;;;;;6.95;4.60;;;11.00;99.90;;;;;;4982833;28;20046;-80
2023/04/21 08:43:06;;;;;;;10.02;5.75;;;11.00;99.90;;;;;;4982070;28;20042;-79
2023/04/21 08:45:33;;;;;;;12.43;4.68;;;11.10;99.90;;;;;;4983503;28;20099;-79
2023/04/21 08:48:00;;;;;;;7.30;4.97;;;11.10;99.90;;;;;;4981481;28;20319;-78
2023/04/21 08:50:30;;;;;;;11.10;5.00;;;11.10;99.90;;;;;;4980788;28;20523;-79
2023/04/21 08:52:56;;;;;;;6.80;3.72;;;11.20;99.90;;;;;;4982012;28;20090;-80
2023/04/21 08:55:29;;;;;;;6.55;3.80;;;11.20;99.90;;;;;;4983551;28;20054;-79
2023/04/21 08:57:55;;;;;;;8.10;5.85;;;11.30;99.90;;;;;;4983280;28;20042;-77
2023/04/21 09:00:21;;;;;;;8.30;5.05;;;11.30;99.90;;;;;;4982019;28;20436;-79
2023/04/21 09:02:58;;;;;;;8.82;5.82;;;11.40;99.90;;;;;;4980695;28;20049;-79
2023/04/21 09:05:28;;;;;;;13.48;5.25;;;11.40;99.90;;;;;;4982679;28;20047;-79
2023/04/21 09:08:11;;;;;;;8.50;5.00;;;11.50;99.90;;;;;;4981601;28;20302;-79
2023/04/21 09:10:45;;;;;;;6.55;4.75;;;11.60;99.90;;;;;;4983004;28;20343;-80
2023/04/21 09:13:11;;;;;;;9.88;5.18;;;11.60;99.90;;;;;;4981496;28;20097;-80
2023/04/21 09:15:44;;;;;;;9.18;4.25;;;11.60;99.90;;;;;;4983026;28;20073;-79
2023/04/21 09:18:15;;;;;;;8.95;5.47;;;11.70;99.90;;;;;;4969752;28;20125;-79
2023/04/21 09:20:42;;;;;;;6.63;4.70;;;11.70;99.90;;;;;;4980285;28;20052;-79
2023/04/21 09:23:09;;;;;;;10.20;5.60;;;11.80;99.90;;;;;;4983169;28;20043;-80
2023/04/21 09:25:38;;;;;;;7.03;4.47;;;11.90;99.90;;;;;;4982934;28;20045;-79
2023/04/21 09:28:12;;;;;;;10.32;4.53;;;11.90;99.90;;;;;;4982999;28;20094;-79
2023/04/21 09:30:39;;;;;;;10.35;5.45;;;12.00;99.90;;;;;;4982376;28;20046;-78
2023/04/21 09:33:05;;;;;;;7.35;3.72;;;12.10;99.90;;;;;;4982254;28;20042;-78
2023/04/21 09:35:36;;;;;;;10.25;5.18;;;12.10;99.90;;;;;;4980531;28;20072;-77
2023/04/21 09:38:03;;;;;;;7.25;4.47;;;12.10;99.90;;;;;;4974608;28;20035;-78
2023/04/21 09:40:29;;;;;;;7.95;4.90;;;12.10;99.90;;;;;;4967115;28;20050;-79
2023/04/21 09:42:55;;;;;;;6.53;4.65;;;12.20;99.90;;;;;;4984605;28;20390;-78
2023/04/21 09:45:25;;;;;;;10.52;5.47;;;12.30;99.90;;;;;;4985186;28;20100;-76
2023/04/21 09:47:59;;;;;;;8.70;4.47;;;12.40;99.90;;;;;;4968511;28;20038;-79
2023/04/21 09:50:25;;;;;;;8.52;4.20;;;12.50;99.90;;;;;;4984890;28;20046;-79
2023/04/21 09:52:52;;;;;;;13.70;6.03;;;12.60;99.90;;;;;;4985788;28;20223;-79
2023/04/21 09:55:25;;;;;;;8.00;4.65;;;12.60;99.90;;;;;;4984526;28;20540;-79
2023/04/21 09:57:56;;;;;;;9.85;5.15;;;12.70;99.90;;;;;;4985628;28;20053;-78
2023/04/21 10:00:27;;;;;;;6.82;4.90;;;12.70;99.90;;;;;;4984897;28;20038;-79
2023/04/21 10:02:53;;;;;;;7.95;4.35;;;12.80;99.90;;;;;;4984335;28;20804;-80
2023/04/21 10:05:19;;;;;;;9.05;5.00;;;12.90;99.90;;;;;;4984457;28;20042;-80
2023/04/21 10:07:46;;;;;;;17.77;6.25;;;12.90;99.90;;;;;;4985532;28;20168;-77
2023/04/21 10:10:24;;;;;;;6.72;4.75;;;13.00;99.90;;;;;;4984364;28;20054;-78
2023/04/21 10:12:51;;;;;;;7.45;4.50;;;13.10;99.90;;;;;;4986369;28;20047;-78
2023/04/21 10:15:36;;;;;;;7.53;4.43;;;13.10;99.90;;;;;;4985194;28;20042;-77
2023/04/21 10:18:22;;;;;;;6.70;4.25;;;13.20;99.90;;;;;;4984277;28;20070;-78
2023/04/21 10:20:54;;;;;;;8.77;5.18;;;13.30;99.90;;;;;;4948533;28;20042;-78
2023/04/21 10:23:30;;;;;;;6.18;3.55;;;13.40;99.90;;;;;;4972606;28;20038;-77
2023/04/21 10:26:26;;;;;;;7.05;3.92;;;13.30;99.90;;;;;;4985687;28;20246;-79
2023/04/21 10:29:05;;;;;;;6.25;4.18;;;13.40;99.90;;;;;;4965522;28;20047;-79
2023/04/21 10:31:36;;;;;;;10.02;5.68;;;13.50;99.90;;;;;;4965780;28;20073;-79
2023/04/21 10:34:07;;;;;;;10.02;5.20;;;13.50;99.90;;;;;;4980184;28;20142;-80
2023/04/21 10:36:45;;;;;;;10.23;5.47;;;13.50;99.90;;;;;;4979014;28;20038;-79
2023/04/21 10:39:23;;;;;;;9.73;4.45;;;13.60;99.90;;;;;;4985754;28;20097;-79
2023/04/21 10:41:50;;;;;;;7.75;4.30;;;13.70;99.90;;;;;;4977494;28;20267;-80
2023/04/21 10:44:16;;;;;;;6.20;3.83;;;13.70;99.90;;;;;;4984548;28;20114;-80
2023/04/21 10:46:46;;;;;;;6.65;4.63;;;13.80;99.90;;;;;;4984105;28;20105;-80
2023/04/21 10:49:22;;;;;;;8.25;4.70;;;13.80;99.90;;;;;;4983907;28;20061;-80
2023/04/21 10:51:57;;;;;;;8.77;4.63;;;13.90;99.90;;;;;;4982215;28;20238;-78
2023/04/21 10:54:26;;;;;;;16.48;6.20;;;14.10;99.90;;;;;;4985034;28;20132;-79
2023/04/21 10:56:56;;;;;;;7.75;4.15;;;14.10;99.90;;;;;;4978088;28;20046;-80
2023/04/21 10:59:22;;;;;;;7.07;4.38;;;14.20;99.90;;;;;;4968601;28;20050;-80
2023/04/21 11:01:48;;;;;;;8.27;4.57;;;14.20;99.90;;;;;;4985463;28;20124;-77
2023/04/21 11:04:19;;;;;;;7.68;3.83;;;14.20;99.90;;;;;;4984251;28;20081;-78
2023/04/21 11:07:09;;;;;;;9.80;4.53;;;14.20;99.90;;;;;;4985183;28;20046;-78
2023/04/21 11:09:36;;;;;;;9.93;4.93;;;14.30;99.90;;;;;;4973102;28;20073;-78
2023/04/21 11:12:06;;;;;;;7.10;4.40;;;14.40;99.90;;;;;;4979973;28;21143;-77
2023/04/21 11:14:34;;;;;;;10.82;5.95;;;14.40;99.90;;;;;;4982870;28;20092;-77
2023/04/21 11:17:00;;;;;;;7.00;4.63;;;14.50;99.90;;;;;;4984950;28;20137;-77
2023/04/21 11:19:26;;;;;;;12.02;5.20;;;14.50;99.90;;;;;;4981941;28;20039;-77
2023/04/21 11:21:54;;;;;;;8.52;5.57;;;14.60;99.90;;;;;;4981293;28;20065;-78
2023/04/21 11:24:21;;;;;;;8.57;5.03;;;14.50;99.90;;;;;;4982222;28;20034;-82
2023/04/21 11:26:46;;;;;;;7.75;5.05;;;14.60;99.90;;;;;;4987146;28;20042;-80
2023/04/21 11:29:13;;;;;;;9.80;4.70;;;14.60;99.90;;;;;;4967314;28;20492;-81
2023/04/21 11:31:41;;;;;;;9.13;4.88;;;14.60;99.90;;;;;;4991618;28;20165;-80
2023/04/21 11:34:07;;;;;;;11.45;4.63;;;14.70;99.90;;;;;;4981705;28;20046;-81
2023/04/21 11:36:38;;;;;;;7.30;4.72;;;14.70;99.90;;;;;;4986293;28;20405;-80
2023/04/21 11:39:09;;;;;;;8.38;4.80;;;14.70;99.90;;;;;;4985840;28;20065;-80
2023/04/21 11:41:39;;;;;;;8.23;4.32;;;14.80;99.90;;;;;;4982373;28;20038;-79
2023/04/21 11:44:05;;;;;;;6.72;4.50;;;14.90;99.90;;;;;;4967718;28;20049;-79
2023/04/21 11:46:35;;;;;;;9.55;4.97;;;15.10;99.90;;;;;;4983894;28;20374;-78
2023/04/21 11:49:06;;;;;;;6.70;4.65;;;15.20;99.90;;;;;;4983068;28;20081;-78
2023/04/21 11:51:36;;;;;;;8.05;4.80;;;15.40;99.90;;;;;;4983132;28;20112;-79
2023/04/21 11:54:04;;;;;;;8.10;4.28;;;15.40;99.90;;;;;;4984309;28;20043;-75
2023/04/21 11:56:34;;;;;;;8.40;3.80;;;15.50;99.90;;;;;;4980705;28;20038;-76
2023/04/21 11:59:05;;;;;;;10.43;4.95;;;15.50;99.90;;;;;;4976400;28;20077;-78
2023/04/21 12:01:30;;;;;;;6.53;3.65;;;15.50;99.90;;;;;;4983428;28;20125;-84
2023/04/21 12:03:56;;;;;;;9.70;4.60;;;15.60;99.90;;;;;;4981780;28;20132;-83
2023/04/21 12:06:23;;;;;;;5.45;3.70;;;15.60;99.90;;;;;;4984374;28;20061;-84
2023/04/21 12:09:03;;;;;;;9.13;4.32;;;15.50;99.90;;;;;;4983213;28;20054;-83
2023/04/21 12:11:30;;;;;;;8.20;4.72;;;15.50;99.90;;;;;;4984304;28;20050;-84
2023/04/21 12:14:00;;;;;;;7.38;4.10;;;15.60;99.90;;;;;;4984136;28;20046;-84
2023/04/21 12:16:27;;;;;;;8.88;4.57;;;15.70;99.90;;;;;;4982639;28;20061;-79
2023/04/21 12:18:53;;;;;;;10.00;3.88;;;15.80;99.90;;;;;;4966374;28;20395;-81
2023/04/21 12:21:19;;;;;;;7.25;4.93;;;15.90;99.90;;;;;;4985198;28;20493;-80
2023/04/21 12:23:44;;;;;;;8.00;4.63;;;16.00;99.90;;;;;;4987047;28;20339;-80
2023/04/21 12:26:11;;;;;;;6.85;4.25;;;16.10;99.90;;;;;;4982261;28;20122;-80
2023/04/21 12:28:37;;;;;;;9.90;3.65;;;16.10;99.90;;;;;;4977079;28;20396;-82
2023/04/21 12:31:03;;;;;;;7.90;3.97;;;16.10;99.90;;;;;;4983793;28;20192;-83
2023/04/21 12:33:29;;;;;;;6.45;3.53;;;16.20;99.90;;;;;;4981972;28;20042;-84
2023/04/21 12:35:55;;;;;;;13.65;5.13;;;16.30;99.90;;;;;;4982882;28;20042;-81
2023/04/21 12:38:21;;;;;;;8.32;4.07;;;16.40;99.90;;;;;;4984894;28;20034;-84
2023/04/21 12:40:47;;;;;;;4.25;3.50;;;16.50;99.90;;;;;;4982420;28;20534;-83
2023/04/21 12:43:13;;;;;;;6.60;4.07;;;16.60;99.90;;;;;;4983476;28;20061;-84
2023/04/21 12:45:38;;;;;;;9.00;4.90;;;16.70;99.90;;;;;;4983074;28;20042;-79
2023/04/21 12:48:05;;;;;;;8.15;3.97;;;16.70;99.90;;;;;;4980937;28;20396;-80
2023/04/21 12:50:31;;;;;;;8.05;3.70;;;16.70;99.90;;;;;;4980705;28;20042;-79
2023/04/21 12:52:56;;;;;;;6.95;3.83;;;16.60;99.90;;;;;;4981139;28;20046;-80